sensor_id;sensor_type;location;lat;lon;timestamp;temperature;humidity
6443;DHT22;3254;47.372;8.512;2023-05-21T00:01:40;12.90;99.90
6443;DHT22;3254;47.372;8.512;2023-05-21T00:04:07;12.90;99.90
6443;DHT22;3254;47.372;8.512;2023-05-21T00:06:36;12.80;99.90
6443;DHT22;3254;47.372;8.512;2023-05-21T00:09:03;12.80;99.90
6443;DHT22;3254;47.372;8.512;2023-05-21T00:11:29;12.80;99.90
6443;DHT22;3254;47.372;8.512;2023-05-21T00:13:54;12.80;99.90
6443;DHT22;3254;47.372;8.512;2023-05-21T00:16:21;12.80;99.90
6443;DHT22;3254;47.372;8.512;2023-05-21T00:18:47;12.80;99.90
6443;DHT22;3254;47.372;8.512;2023-05-21T00:21:17;12.80;99.90
6443;DHT22;3254;47.372;8.512;2023-05-21T00:23:47;12.80;99.90
6443;DHT22;3254;47.372;8.512;2023-05-21T00:26:13;12.70;99.90
6443;DHT22;3254;47.372;8.512;2023-05-21T00:28:38;12.60;99.90
6443;DHT22;3254;47.372;8.512;2023-05-21T00:31:04;12.60;99.90
6443;DHT22;3254;47.372;8.512;2023-05-21T00:33:30;12.50;99.90
6443;DHT22;3254;47.372;8.512;2023-05-21T00:35:55;12.60;99.90
6443;DHT22;3254;47.372;8.512;2023-05-21T00:38:22;12.60;99.90
6443;DHT22;3254;47.372;8.512;2023-05-21T00:40:48;12.60;99.90
6443;DHT22;3254;47.372;8.512;2023-05-21T00:43:14;12.60;99.90
6443;DHT22;3254;47.372;8.512;2023-05-21T00:45:41;12.60;99.90
6443;DHT22;3254;47.372;8.512;2023-05-21T00:48:09;12.60;99.90
6443;DHT22;3254;47.372;8.512;2023-05-21T00:50:35;12.50;99.90
6443;DHT22;3254;47.372;8.512;2023-05-21T00:53:05;12.60;99.90
6443;DHT22;3254;47.372;8.512;2023-05-21T00:55:35;12.60;99.90
6443;DHT22;3254;47.372;8.512;2023-05-21T00:58:01;12.60;99.90
6443;DHT22;3254;47.372;8.512;2023-05-21T01:00:30;12.60;99.90
6443;DHT22;3254;47.372;8.512;2023-05-21T01:02:57;12.50;99.90
6443;DHT22;3254;47.372;8.512;2023-05-21T01:05:23;12.50;99.90
6443;DHT22;3254;47.372;8.512;2023-05-21T01:07:48;12.60;99.90
6443;DHT22;3254;47.372;8.512;2023-05-21T01:10:14;12.60;99.90
6443;DHT22;3254;47.372;8.512;2023-05-21T01:12:42;12.60;99.90
6443;DHT22;3254;47.372;8.512;2023-05-21T01:15:08;12.60;99.90
6443;DHT22;3254;47.372;8.512;2023-05-21T01:17:35;12.60;99.90
6443;DHT22;3254;47.372;8.512;2023-05-21T01:20:01;12.60;99.90
6443;DHT22;3254;47.372;8.512;2023-05-21T01:22:34;12.70;99.90
6443;DHT22;3254;47.372;8.512;2023-05-21T01:25:00;12.60;99.90
6443;DHT22;3254;47.372;8.512;2023-05-21T01:27:27;12.70;99.90
6443;DHT22;3254;47.372;8.512;2023-05-21T01:29:52;12.70;99.90
6443;DHT22;3254;47.372;8.512;2023-05-21T01:32:33;12.60;99.90
6443;DHT22;3254;47.372;8.512;2023-05-21T01:35:12;12.60;99.90
6443;DHT22;3254;47.372;8.512;2023-05-21T01:37:47;12.60;99.90
6443;DHT22;3254;47.372;8.512;2023-05-21T01:40:21;12.60;99.90
6443;DHT22;3254;47.372;8.512;2023-05-21T01:42:47;12.60;99.90
6443;DHT22;3254;47.372;8.512;2023-05-21T01:45:16;12.50;99.90
6443;DHT22;3254;47.372;8.512;2023-05-21T01:47:45;12.50;99.90
6443;DHT22;3254;47.372;8.512;2023-05-21T01:50:13;12.50;99.90
6443;DHT22;3254;47.372;8.512;2023-05-21T01:52:38;12.50;99.90
6443;DHT22;3254;47.372;8.512;2023-05-21T01:55:12;12.50;99.90
6443;DHT22;3254;47.372;8.512;2023-05-21T01:57:37;12.50;99.90
6443;DHT22;3254;47.372;8.512;2023-05-21T02:00:04;12.40;99.90
6443;DHT22;3254;47.372;8.512;2023-05-21T02:02:30;12.40;99.90
6443;DHT22;3254;47.372;8.512;2023-05-21T02:04:55;12.40;99.90
6443;DHT22;3254;47.372;8.512;2023-05-21T02:07:21;12.40;99.90
6443;DHT22;3254;47.372;8.512;2023-05-21T02:09:46;12.40;99.90
6443;DHT22;3254;47.372;8.512;2023-05-21T02:12:12;12.30;99.90
6443;DHT22;3254;47.372;8.512;2023-05-21T02:14:38;12.20;99.90
6443;DHT22;3254;47.372;8.512;2023-05-21T02:17:03;12.20;99.90
6443;DHT22;3254;47.372;8.512;2023-05-21T02:19:29;12.10;99.90
6443;DHT22;3254;47.372;8.512;2023-05-21T02:21:54;12.10;99.90
6443;DHT22;3254;47.372;8.512;2023-05-21T02:24:20;12.10;99.90
6443;DHT22;3254;47.372;8.512;2023-05-21T02:26:46;12.10;99.90
6443;DHT22;3254;47.372;8.512;2023-05-21T02:29:14;12.10;99.90
6443;DHT22;3254;47.372;8.512;2023-05-21T02:31:39;12.00;99.90
6443;DHT22;3254;47.372;8.512;2023-05-21T02:34:05;12.00;99.90
6443;DHT22;3254;47.372;8.512;2023-05-21T02:36:33;11.90;99.90
6443;DHT22;3254;47.372;8.512;2023-05-21T02:39:00;11.90;99.90
6443;DHT22;3254;47.372;8.512;2023-05-21T02:41:26;11.80;99.90
6443;DHT22;3254;47.372;8.512;2023-05-21T02:43:51;11.70;99.90
6443;DHT22;3254;47.372;8.512;2023-05-21T02:46:17;11.60;99.90
6443;DHT22;3254;47.372;8.512;2023-05-21T02:48:42;11.60;99.90
6443;DHT22;3254;47.372;8.512;2023-05-21T02:51:08;11.50;99.90
6443;DHT22;3254;47.372;8.512;2023-05-21T02:53:33;11.50;99.90
6443;DHT22;3254;47.372;8.512;2023-05-21T02:55:59;11.40;99.90
6443;DHT22;3254;47.372;8.512;2023-05-21T02:58:24;11.40;99.90
6443;DHT22;3254;47.372;8.512;2023-05-21T03:00:51;11.40;99.90
6443;DHT22;3254;47.372;8.512;2023-05-21T03:03:17;11.40;99.90
6443;DHT22;3254;47.372;8.512;2023-05-21T03:05:43;11.40;99.90
6443;DHT22;3254;47.372;8.512;2023-05-21T03:08:10;11.40;99.90
6443;DHT22;3254;47.372;8.512;2023-05-21T03:10:35;11.40;99.90
6443;DHT22;3254;47.372;8.512;2023-05-21T03:13:01;11.30;99.90
6443;DHT22;3254;47.372;8.512;2023-05-21T03:15:29;11.20;99.90
6443;DHT22;3254;47.372;8.512;2023-05-21T03:17:58;11.20;99.90
6443;DHT22;3254;47.372;8.512;2023-05-21T03:20:23;11.20;99.90
6443;DHT22;3254;47.372;8.512;2023-05-21T03:22:49;11.20;99.90
6443;DHT22;3254;47.372;8.512;2023-05-21T03:25:14;11.20;99.90
6443;DHT22;3254;47.372;8.512;2023-05-21T03:27:40;11.20;99.90
6443;DHT22;3254;47.372;8.512;2023-05-21T03:30:06;11.30;99.90
6443;DHT22;3254;47.372;8.512;2023-05-21T03:32:32;11.30;99.90
6443;DHT22;3254;47.372;8.512;2023-05-21T03:34:58;11.30;99.90
6443;DHT22;3254;47.372;8.512;2023-05-21T03:37:24;11.30;99.90
6443;DHT22;3254;47.372;8.512;2023-05-21T03:39:50;11.30;99.90
6443;DHT22;3254;47.372;8.512;2023-05-21T03:42:15;11.30;99.90
6443;DHT22;3254;47.372;8.512;2023-05-21T03:44:41;11.30;99.90
6443;DHT22;3254;47.372;8.512;2023-05-21T03:47:06;11.30;99.90
6443;DHT22;3254;47.372;8.512;2023-05-21T03:49:32;11.30;99.90
6443;DHT22;3254;47.372;8.512;2023-05-21T03:51:57;11.30;99.90
6443;DHT22;3254;47.372;8.512;2023-05-21T03:54:23;11.20;99.90
6443;DHT22;3254;47.372;8.512;2023-05-21T03:56:48;11.30;99.90
6443;DHT22;3254;47.372;8.512;2023-05-21T03:59:14;11.30;99.90
6443;DHT22;3254;47.372;8.512;2023-05-21T04:01:39;11.20;99.90
6443;DHT22;3254;47.372;8.512;2023-05-21T04:04:05;11.20;99.90
6443;DHT22;3254;47.372;8.512;2023-05-21T04:06:30;11.20;99.90
6443;DHT22;3254;47.372;8.512;2023-05-21T04:08:56;11.10;99.90
6443;DHT22;3254;47.372;8.512;2023-05-21T04:11:21;11.10;99.90
6443;DHT22;3254;47.372;8.512;2023-05-21T04:13:47;11.20;99.90
6443;DHT22;3254;47.372;8.512;2023-05-21T04:16:13;11.20;99.90
6443;DHT22;3254;47.372;8.512;2023-05-21T04:18:39;11.10;99.90
6443;DHT22;3254;47.372;8.512;2023-05-21T04:21:06;11.10;99.90
6443;DHT22;3254;47.372;8.512;2023-05-21T04:23:32;11.20;99.90
6443;DHT22;3254;47.372;8.512;2023-05-21T04:25:57;11.20;99.90
6443;DHT22;3254;47.372;8.512;2023-05-21T04:28:23;11.20;99.90
6443;DHT22;3254;47.372;8.512;2023-05-21T04:30:49;11.20;99.90
6443;DHT22;3254;47.372;8.512;2023-05-21T04:33:14;11.20;99.90
6443;DHT22;3254;47.372;8.512;2023-05-21T04:35:50;11.20;99.90
6443;DHT22;3254;47.372;8.512;2023-05-21T04:38:17;11.30;99.90
6443;DHT22;3254;47.372;8.512;2023-05-21T04:40:48;11.30;99.90
6443;DHT22;3254;47.372;8.512;2023-05-21T04:43:15;11.30;99.90
6443;DHT22;3254;47.372;8.512;2023-05-21T04:45:41;11.40;99.90
6443;DHT22;3254;47.372;8.512;2023-05-21T04:48:08;11.40;99.90
6443;DHT22;3254;47.372;8.512;2023-05-21T04:50:33;11.50;99.90
6443;DHT22;3254;47.372;8.512;2023-05-21T04:52:59;11.50;99.90
6443;DHT22;3254;47.372;8.512;2023-05-21T04:55:25;11.70;99.90
6443;DHT22;3254;47.372;8.512;2023-05-21T04:57:51;11.70;99.90
6443;DHT22;3254;47.372;8.512;2023-05-21T05:00:18;11.70;99.90
6443;DHT22;3254;47.372;8.512;2023-05-21T05:02:43;11.70;99.90
6443;DHT22;3254;47.372;8.512;2023-05-21T05:05:09;11.80;99.90
6443;DHT22;3254;47.372;8.512;2023-05-21T05:07:34;11.90;99.90
6443;DHT22;3254;47.372;8.512;2023-05-21T05:10:03;11.90;99.90
6443;DHT22;3254;47.372;8.512;2023-05-21T05:12:29;12.00;99.90
6443;DHT22;3254;47.372;8.512;2023-05-21T05:14:55;12.10;99.90
6443;DHT22;3254;47.372;8.512;2023-05-21T05:17:20;12.20;99.90
6443;DHT22;3254;47.372;8.512;2023-05-21T05:19:46;12.20;99.90
6443;DHT22;3254;47.372;8.512;2023-05-21T05:22:11;12.30;99.90
6443;DHT22;3254;47.372;8.512;2023-05-21T05:24:37;12.40;99.90
6443;DHT22;3254;47.372;8.512;2023-05-21T05:27:02;12.50;99.90
6443;DHT22;3254;47.372;8.512;2023-05-21T05:29:28;12.60;99.90
6443;DHT22;3254;47.372;8.512;2023-05-21T05:31:54;12.70;99.90
6443;DHT22;3254;47.372;8.512;2023-05-21T05:34:19;12.70;99.90
6443;DHT22;3254;47.372;8.512;2023-05-21T05:36:45;12.80;99.90
6443;DHT22;3254;47.372;8.512;2023-05-21T05:39:11;12.90;99.90
6443;DHT22;3254;47.372;8.512;2023-05-21T05:41:36;13.00;99.90
6443;DHT22;3254;47.372;8.512;2023-05-21T05:44:02;13.00;99.90
6443;DHT22;3254;47.372;8.512;2023-05-21T05:46:28;13.10;99.90
6443;DHT22;3254;47.372;8.512;2023-05-21T05:48:53;13.20;99.90
6443;DHT22;3254;47.372;8.512;2023-05-21T05:51:19;13.30;99.90
6443;DHT22;3254;47.372;8.512;2023-05-21T05:53:45;13.40;95.30
6443;DHT22;3254;47.372;8.512;2023-05-21T05:56:10;13.50;94.40
6443;DHT22;3254;47.372;8.512;2023-05-21T05:58:36;13.50;88.80
6443;DHT22;3254;47.372;8.512;2023-05-21T06:01:01;13.60;83.40
6443;DHT22;3254;47.372;8.512;2023-05-21T06:03:27;13.70;77.20
6443;DHT22;3254;47.372;8.512;2023-05-21T06:05:53;13.70;71.20
6443;DHT22;3254;47.372;8.512;2023-05-21T06:08:19;13.80;69.00
6443;DHT22;3254;47.372;8.512;2023-05-21T06:10:44;13.90;58.50
6443;DHT22;3254;47.372;8.512;2023-05-21T06:13:10;14.00;56.10
6443;DHT22;3254;47.372;8.512;2023-05-21T06:15:35;14.20;48.70
6443;DHT22;3254;47.372;8.512;2023-05-21T06:18:01;14.20;43.10
6443;DHT22;3254;47.372;8.512;2023-05-21T06:20:27;14.30;42.40
6443;DHT22;3254;47.372;8.512;2023-05-21T06:22:54;14.50;37.20
6443;DHT22;3254;47.372;8.512;2023-05-21T06:25:19;14.70;32.30
6443;DHT22;3254;47.372;8.512;2023-05-21T06:27:45;14.70;29.10
6443;DHT22;3254;47.372;8.512;2023-05-21T06:30:11;14.80;27.70
6443;DHT22;3254;47.372;8.512;2023-05-21T06:32:36;15.10;25.10
6443;DHT22;3254;47.372;8.512;2023-05-21T06:35:02;15.30;21.60
6443;DHT22;3254;47.372;8.512;2023-05-21T06:37:28;15.40;17.20
6443;DHT22;3254;47.372;8.512;2023-05-21T06:39:53;15.60;14.90
6443;DHT22;3254;47.372;8.512;2023-05-21T06:42:19;15.90;11.60
6443;DHT22;3254;47.372;8.512;2023-05-21T06:44:44;16.00;8.10
6443;DHT22;3254;47.372;8.512;2023-05-21T06:47:10;16.00;5.80
6443;DHT22;3254;47.372;8.512;2023-05-21T06:49:35;16.10;2.70
6443;DHT22;3254;47.372;8.512;2023-05-21T06:52:01;16.20;3.10
6443;DHT22;3254;47.372;8.512;2023-05-21T06:54:27;16.20;1.00
6443;DHT22;3254;47.372;8.512;2023-05-21T06:56:53;16.30;1.00
6443;DHT22;3254;47.372;8.512;2023-05-21T06:59:18;16.40;1.00
6443;DHT22;3254;47.372;8.512;2023-05-21T07:01:44;16.60;1.00
6443;DHT22;3254;47.372;8.512;2023-05-21T07:04:10;16.90;1.00
6443;DHT22;3254;47.372;8.512;2023-05-21T07:06:35;17.10;1.00
6443;DHT22;3254;47.372;8.512;2023-05-21T07:09:02;17.40;1.00
6443;DHT22;3254;47.372;8.512;2023-05-21T07:11:28;17.40;1.00
6443;DHT22;3254;47.372;8.512;2023-05-21T07:13:56;17.60;1.00
6443;DHT22;3254;47.372;8.512;2023-05-21T07:16:22;17.70;1.00
6443;DHT22;3254;47.372;8.512;2023-05-21T07:18:47;18.00;1.00
6443;DHT22;3254;47.372;8.512;2023-05-21T07:21:13;18.20;1.00
6443;DHT22;3254;47.372;8.512;2023-05-21T07:23:38;18.20;1.00
6443;DHT22;3254;47.372;8.512;2023-05-21T07:26:04;18.40;1.00
6443;DHT22;3254;47.372;8.512;2023-05-21T07:28:30;18.70;1.00
6443;DHT22;3254;47.372;8.512;2023-05-21T07:30:55;19.00;1.00
6443;DHT22;3254;47.372;8.512;2023-05-21T07:33:21;19.50;1.00
6443;DHT22;3254;47.372;8.512;2023-05-21T07:35:47;19.70;1.00
6443;DHT22;3254;47.372;8.512;2023-05-21T07:38:13;19.70;1.00
6443;DHT22;3254;47.372;8.512;2023-05-21T07:40:38;20.10;1.00
6443;DHT22;3254;47.372;8.512;2023-05-21T07:43:04;20.60;1.00
6443;DHT22;3254;47.372;8.512;2023-05-21T07:45:30;20.90;1.00
6443;DHT22;3254;47.372;8.512;2023-05-21T07:47:55;21.20;1.00
6443;DHT22;3254;47.372;8.512;2023-05-21T07:50:21;21.50;1.00
6443;DHT22;3254;47.372;8.512;2023-05-21T07:52:46;21.90;1.00
6443;DHT22;3254;47.372;8.512;2023-05-21T07:55:12;22.40;1.00
6443;DHT22;3254;47.372;8.512;2023-05-21T07:57:37;22.90;1.00
6443;DHT22;3254;47.372;8.512;2023-05-21T08:00:03;23.20;1.00
6443;DHT22;3254;47.372;8.512;2023-05-21T08:02:33;23.20;1.00
6443;DHT22;3254;47.372;8.512;2023-05-21T08:04:58;23.70;1.00
6443;DHT22;3254;47.372;8.512;2023-05-21T08:07:26;24.10;1.00
6443;DHT22;3254;47.372;8.512;2023-05-21T08:09:52;24.50;1.00
6443;DHT22;3254;47.372;8.512;2023-05-21T08:12:18;25.10;1.00
6443;DHT22;3254;47.372;8.512;2023-05-21T08:14:44;26.00;1.00
6443;DHT22;3254;47.372;8.512;2023-05-21T08:17:10;25.90;1.00
6443;DHT22;3254;47.372;8.512;2023-05-21T08:19:35;25.80;1.00
6443;DHT22;3254;47.372;8.512;2023-05-21T08:22:01;25.80;1.00
6443;DHT22;3254;47.372;8.512;2023-05-21T08:24:27;26.20;1.00
6443;DHT22;3254;47.372;8.512;2023-05-21T08:26:53;25.90;1.00
6443;DHT22;3254;47.372;8.512;2023-05-21T08:29:19;26.00;1.00
6443;DHT22;3254;47.372;8.512;2023-05-21T08:31:44;26.30;1.00
6443;DHT22;3254;47.372;8.512;2023-05-21T08:34:10;26.70;1.00
6443;DHT22;3254;47.372;8.512;2023-05-21T08:36:36;26.80;1.00
6443;DHT22;3254;47.372;8.512;2023-05-21T08:39:01;26.60;1.00
6443;DHT22;3254;47.372;8.512;2023-05-21T08:41:29;26.40;1.00
6443;DHT22;3254;47.372;8.512;2023-05-21T08:43:55;25.90;1.00
6443;DHT22;3254;47.372;8.512;2023-05-21T08:46:24;25.70;1.00
6443;DHT22;3254;47.372;8.512;2023-05-21T08:48:53;25.50;1.00
6443;DHT22;3254;47.372;8.512;2023-05-21T08:51:20;25.70;1.00
6443;DHT22;3254;47.372;8.512;2023-05-21T08:53:46;26.00;1.00
6443;DHT22;3254;47.372;8.512;2023-05-21T08:56:13;26.30;1.00
6443;DHT22;3254;47.372;8.512;2023-05-21T08:58:41;27.20;1.00
6443;DHT22;3254;47.372;8.512;2023-05-21T09:01:10;27.60;1.00
6443;DHT22;3254;47.372;8.512;2023-05-21T09:03:39;27.80;1.00
6443;DHT22;3254;47.372;8.512;2023-05-21T09:06:06;28.40;1.00
6443;DHT22;3254;47.372;8.512;2023-05-21T09:08:37;28.50;1.00
6443;DHT22;3254;47.372;8.512;2023-05-21T09:11:06;28.90;1.00
6443;DHT22;3254;47.372;8.512;2023-05-21T09:13:32;28.50;1.00
6443;DHT22;3254;47.372;8.512;2023-05-21T09:15:58;28.20;1.00
6443;DHT22;3254;47.372;8.512;2023-05-21T09:18:24;28.10;1.00
6443;DHT22;3254;47.372;8.512;2023-05-21T09:20:51;27.80;1.00
6443;DHT22;3254;47.372;8.512;2023-05-21T09:23:18;27.70;1.00
6443;DHT22;3254;47.372;8.512;2023-05-21T09:25:45;28.50;1.00
6443;DHT22;3254;47.372;8.512;2023-05-21T09:28:13;29.30;1.00
6443;DHT22;3254;47.372;8.512;2023-05-21T09:30:46;29.20;1.00
6443;DHT22;3254;47.372;8.512;2023-05-21T09:33:12;30.10;1.00
6443;DHT22;3254;47.372;8.512;2023-05-21T09:35:49;30.20;1.00
6443;DHT22;3254;47.372;8.512;2023-05-21T09:38:15;30.00;1.00
6443;DHT22;3254;47.372;8.512;2023-05-21T09:40:45;30.20;1.00
6443;DHT22;3254;47.372;8.512;2023-05-21T09:43:14;30.20;1.00
6443;DHT22;3254;47.372;8.512;2023-05-21T09:45:53;30.60;1.00
6443;DHT22;3254;47.372;8.512;2023-05-21T09:53:52;30.20;1.00
6443;DHT22;3254;47.372;8.512;2023-05-21T09:56:24;30.90;1.00
6443;DHT22;3254;47.372;8.512;2023-05-21T09:58:54;32.00;1.00
6443;DHT22;3254;47.372;8.512;2023-05-21T10:01:22;32.30;1.00
6443;DHT22;3254;47.372;8.512;2023-05-21T10:03:55;32.70;1.00
6443;DHT22;3254;47.372;8.512;2023-05-21T10:06:23;32.40;1.00
6443;DHT22;3254;47.372;8.512;2023-05-21T10:08:52;32.20;1.00
6443;DHT22;3254;47.372;8.512;2023-05-21T10:11:18;31.70;1.00
6443;DHT22;3254;47.372;8.512;2023-05-21T10:13:49;31.70;1.00
6443;DHT22;3254;47.372;8.512;2023-05-21T10:16:17;30.90;1.00
6443;DHT22;3254;47.372;8.512;2023-05-21T10:18:43;31.60;1.00
6443;DHT22;3254;47.372;8.512;2023-05-21T10:21:10;31.80;1.00
6443;DHT22;3254;47.372;8.512;2023-05-21T10:23:36;31.70;1.00
6443;DHT22;3254;47.372;8.512;2023-05-21T10:26:03;31.90;1.00
6443;DHT22;3254;47.372;8.512;2023-05-21T10:28:30;32.30;1.00
6443;DHT22;3254;47.372;8.512;2023-05-21T10:30:57;33.10;1.00
6443;DHT22;3254;47.372;8.512;2023-05-21T10:33:24;33.50;1.00
6443;DHT22;3254;47.372;8.512;2023-05-21T10:35:52;33.90;1.00
6443;DHT22;3254;47.372;8.512;2023-05-21T10:38:19;33.70;1.00
6443;DHT22;3254;47.372;8.512;2023-05-21T10:40:46;34.10;1.00
6443;DHT22;3254;47.372;8.512;2023-05-21T10:43:24;34.00;1.00
6443;DHT22;3254;47.372;8.512;2023-05-21T10:46:10;34.40;1.00
6443;DHT22;3254;47.372;8.512;2023-05-21T10:54:33;34.20;1.00
6443;DHT22;3254;47.372;8.512;2023-05-21T10:57:18;34.20;1.00
6443;DHT22;3254;47.372;8.512;2023-05-21T10:59:49;33.60;1.00
6443;DHT22;3254;47.372;8.512;2023-05-21T11:02:16;33.90;1.00
6443;DHT22;3254;47.372;8.512;2023-05-21T11:04:43;34.00;1.00
6443;DHT22;3254;47.372;8.512;2023-05-21T11:07:12;33.50;1.00
6443;DHT22;3254;47.372;8.512;2023-05-21T11:09:38;33.40;1.00
6443;DHT22;3254;47.372;8.512;2023-05-21T11:12:03;33.40;1.00
6443;DHT22;3254;47.372;8.512;2023-05-21T11:14:37;34.00;1.00
6443;DHT22;3254;47.372;8.512;2023-05-21T11:19:40;34.00;1.00
6443;DHT22;3254;47.372;8.512;2023-05-21T11:22:20;34.70;1.00
6443;DHT22;3254;47.372;8.512;2023-05-21T11:24:46;35.00;1.00
6443;DHT22;3254;47.372;8.512;2023-05-21T11:27:13;35.20;1.00
6443;DHT22;3254;47.372;8.512;2023-05-21T11:29:54;34.40;1.00
6443;DHT22;3254;47.372;8.512;2023-05-21T11:32:20;34.30;1.00
6443;DHT22;3254;47.372;8.512;2023-05-21T11:34:49;34.50;1.00
6443;DHT22;3254;47.372;8.512;2023-05-21T11:39:46;35.20;1.00
6443;DHT22;3254;47.372;8.512;2023-05-21T11:42:13;35.40;1.00
6443;DHT22;3254;47.372;8.512;2023-05-21T11:44:51;35.50;1.00
6443;DHT22;3254;47.372;8.512;2023-05-21T11:47:18;35.20;1.00
6443;DHT22;3254;47.372;8.512;2023-05-21T11:49:45;35.10;1.00
6443;DHT22;3254;47.372;8.512;2023-05-21T11:52:12;35.00;1.00
6443;DHT22;3254;47.372;8.512;2023-05-21T11:54:45;34.90;1.00
6443;DHT22;3254;47.372;8.512;2023-05-21T11:57:13;34.50;1.00
6443;DHT22;3254;47.372;8.512;2023-05-21T11:59:41;34.30;1.00
6443;DHT22;3254;47.372;8.512;2023-05-21T12:02:07;34.80;1.00
6443;DHT22;3254;47.372;8.512;2023-05-21T12:04:34;34.20;1.00
6443;DHT22;3254;47.372;8.512;2023-05-21T12:07:04;34.40;1.00
6443;DHT22;3254;47.372;8.512;2023-05-21T12:09:47;34.90;1.00
6443;DHT22;3254;47.372;8.512;2023-05-21T12:12:15;34.60;1.00
6443;DHT22;3254;47.372;8.512;2023-05-21T12:14:45;34.80;1.00
6443;DHT22;3254;47.372;8.512;2023-05-21T12:17:14;35.00;1.00
6443;DHT22;3254;47.372;8.512;2023-05-21T12:19:40;35.20;1.00
6443;DHT22;3254;47.372;8.512;2023-05-21T12:22:06;35.20;1.00
6443;DHT22;3254;47.372;8.512;2023-05-21T12:24:33;35.10;1.00
6443;DHT22;3254;47.372;8.512;2023-05-21T12:27:01;35.20;1.00
6443;DHT22;3254;47.372;8.512;2023-05-21T12:29:27;35.00;1.00
6443;DHT22;3254;47.372;8.512;2023-05-21T12:31:58;35.70;1.00
6443;DHT22;3254;47.372;8.512;2023-05-21T12:37:27;37.10;1.00
6443;DHT22;3254;47.372;8.512;2023-05-21T12:39:57;37.30;1.00
6443;DHT22;3254;47.372;8.512;2023-05-21T12:42:27;37.00;1.00
6443;DHT22;3254;47.372;8.512;2023-05-21T12:44:59;36.70;1.00
6443;DHT22;3254;47.372;8.512;2023-05-21T12:47:26;36.00;1.00
6443;DHT22;3254;47.372;8.512;2023-05-21T12:49:59;35.60;1.00
6443;DHT22;3254;47.372;8.512;2023-05-21T12:52:29;35.80;1.00
6443;DHT22;3254;47.372;8.512;2023-05-21T12:54:57;35.80;1.00
6443;DHT22;3254;47.372;8.512;2023-05-21T12:57:25;35.80;1.00
6443;DHT22;3254;47.372;8.512;2023-05-21T12:59:56;35.80;1.00
6443;DHT22;3254;47.372;8.512;2023-05-21T13:04:56;35.30;1.00
6443;DHT22;3254;47.372;8.512;2023-05-21T13:07:23;35.00;1.00
6443;DHT22;3254;47.372;8.512;2023-05-21T13:09:48;35.50;1.00
6443;DHT22;3254;47.372;8.512;2023-05-21T13:12:17;35.30;1.00
6443;DHT22;3254;47.372;8.512;2023-05-21T13:14:43;35.00;1.00
6443;DHT22;3254;47.372;8.512;2023-05-21T13:17:08;35.20;1.00
6443;DHT22;3254;47.372;8.512;2023-05-21T13:19:34;35.90;1.00
6443;DHT22;3254;47.372;8.512;2023-05-21T13:22:00;36.30;1.00
6443;DHT22;3254;47.372;8.512;2023-05-21T13:24:26;35.70;1.00
6443;DHT22;3254;47.372;8.512;2023-05-21T13:26:51;35.20;1.00
6443;DHT22;3254;47.372;8.512;2023-05-21T13:29:17;34.80;1.00
6443;DHT22;3254;47.372;8.512;2023-05-21T13:31:43;34.30;1.00
6443;DHT22;3254;47.372;8.512;2023-05-21T13:34:10;34.20;1.00
6443;DHT22;3254;47.372;8.512;2023-05-21T13:36:36;34.20;1.00
6443;DHT22;3254;47.372;8.512;2023-05-21T13:39:02;33.80;1.00
6443;DHT22;3254;47.372;8.512;2023-05-21T13:41:27;33.60;1.00
6443;DHT22;3254;47.372;8.512;2023-05-21T13:43:53;33.40;1.00
6443;DHT22;3254;47.372;8.512;2023-05-21T13:46:19;33.50;1.00
6443;DHT22;3254;47.372;8.512;2023-05-21T13:48:44;34.00;1.00
6443;DHT22;3254;47.372;8.512;2023-05-21T13:51:10;34.10;1.00
6443;DHT22;3254;47.372;8.512;2023-05-21T13:53:36;34.00;1.00
6443;DHT22;3254;47.372;8.512;2023-05-21T13:56:03;33.60;1.00
6443;DHT22;3254;47.372;8.512;2023-05-21T13:58:29;33.10;1.00
6443;DHT22;3254;47.372;8.512;2023-05-21T14:00:59;32.50;1.00
6443;DHT22;3254;47.372;8.512;2023-05-21T14:03:25;31.90;1.00
6443;DHT22;3254;47.372;8.512;2023-05-21T14:05:52;31.60;1.00
6443;DHT22;3254;47.372;8.512;2023-05-21T14:08:18;31.90;1.00
6443;DHT22;3254;47.372;8.512;2023-05-21T14:10:45;32.30;1.00
6443;DHT22;3254;47.372;8.512;2023-05-21T14:13:12;33.10;1.00
6443;DHT22;3254;47.372;8.512;2023-05-21T14:15:38;33.90;1.00
6443;DHT22;3254;47.372;8.512;2023-05-21T14:18:04;34.40;1.00
6443;DHT22;3254;47.372;8.512;2023-05-21T14:20:32;35.00;1.00
6443;DHT22;3254;47.372;8.512;2023-05-21T14:22:58;35.80;1.00
6443;DHT22;3254;47.372;8.512;2023-05-21T14:25:23;35.90;1.00
6443;DHT22;3254;47.372;8.512;2023-05-21T14:27:49;36.60;1.00
6443;DHT22;3254;47.372;8.512;2023-05-21T14:30:15;37.50;1.00
6443;DHT22;3254;47.372;8.512;2023-05-21T14:32:40;37.70;1.00
6443;DHT22;3254;47.372;8.512;2023-05-21T14:35:06;37.30;1.00
6443;DHT22;3254;47.372;8.512;2023-05-21T14:37:32;36.60;1.00
6443;DHT22;3254;47.372;8.512;2023-05-21T14:39:57;36.40;1.00
6443;DHT22;3254;47.372;8.512;2023-05-21T14:42:23;36.00;1.00
6443;DHT22;3254;47.372;8.512;2023-05-21T14:44:48;35.90;1.00
6443;DHT22;3254;47.372;8.512;2023-05-21T14:47:14;35.80;1.00
6443;DHT22;3254;47.372;8.512;2023-05-21T14:49:39;35.70;1.00
6443;DHT22;3254;47.372;8.512;2023-05-21T14:52:05;35.00;1.00
6443;DHT22;3254;47.372;8.512;2023-05-21T14:54:31;34.30;1.00
6443;DHT22;3254;47.372;8.512;2023-05-21T14:56:56;33.60;1.00
6443;DHT22;3254;47.372;8.512;2023-05-21T14:59:22;33.20;1.00
6443;DHT22;3254;47.372;8.512;2023-05-21T15:01:47;33.00;1.00
6443;DHT22;3254;47.372;8.512;2023-05-21T15:04:13;32.50;1.00
6443;DHT22;3254;47.372;8.512;2023-05-21T15:06:38;32.20;1.00
6443;DHT22;3254;47.372;8.512;2023-05-21T15:09:04;31.80;1.00
6443;DHT22;3254;47.372;8.512;2023-05-21T15:11:30;31.40;1.00
6443;DHT22;3254;47.372;8.512;2023-05-21T15:13:55;31.10;1.00
6443;DHT22;3254;47.372;8.512;2023-05-21T15:16:21;31.20;1.00
6443;DHT22;3254;47.372;8.512;2023-05-21T15:18:46;31.20;1.00
6443;DHT22;3254;47.372;8.512;2023-05-21T15:21:12;31.30;1.00
6443;DHT22;3254;47.372;8.512;2023-05-21T15:23:38;31.90;1.00
6443;DHT22;3254;47.372;8.512;2023-05-21T15:26:03;32.00;1.00
6443;DHT22;3254;47.372;8.512;2023-05-21T15:28:29;32.70;1.00
6443;DHT22;3254;47.372;8.512;2023-05-21T15:30:54;33.50;1.00
6443;DHT22;3254;47.372;8.512;2023-05-21T15:33:20;34.00;1.00
6443;DHT22;3254;47.372;8.512;2023-05-21T15:35:45;35.20;1.00
6443;DHT22;3254;47.372;8.512;2023-05-21T15:38:11;36.40;1.00
6443;DHT22;3254;47.372;8.512;2023-05-21T15:40:38;36.70;1.00
6443;DHT22;3254;47.372;8.512;2023-05-21T15:43:05;37.60;1.00
6443;DHT22;3254;47.372;8.512;2023-05-21T15:45:31;37.40;1.00
6443;DHT22;3254;47.372;8.512;2023-05-21T15:47:56;37.70;1.00
6443;DHT22;3254;47.372;8.512;2023-05-21T15:50:22;37.70;1.00
6443;DHT22;3254;47.372;8.512;2023-05-21T15:52:47;38.40;1.00
6443;DHT22;3254;47.372;8.512;2023-05-21T15:55:13;39.20;1.00
6443;DHT22;3254;47.372;8.512;2023-05-21T15:57:38;39.50;1.00
6443;DHT22;3254;47.372;8.512;2023-05-21T16:00:04;40.10;1.00
6443;DHT22;3254;47.372;8.512;2023-05-21T16:02:30;40.20;1.00
6443;DHT22;3254;47.372;8.512;2023-05-21T16:04:56;40.60;1.00
6443;DHT22;3254;47.372;8.512;2023-05-21T16:07:22;40.40;1.00
6443;DHT22;3254;47.372;8.512;2023-05-21T16:09:48;40.20;1.00
6443;DHT22;3254;47.372;8.512;2023-05-21T16:12:13;40.30;1.00
6443;DHT22;3254;47.372;8.512;2023-05-21T16:14:39;40.20;1.00
6443;DHT22;3254;47.372;8.512;2023-05-21T16:17:04;39.40;1.00
6443;DHT22;3254;47.372;8.512;2023-05-21T16:19:30;38.90;1.00
6443;DHT22;3254;47.372;8.512;2023-05-21T16:21:55;38.80;1.00
6443;DHT22;3254;47.372;8.512;2023-05-21T16:24:21;38.20;1.00
6443;DHT22;3254;47.372;8.512;2023-05-21T16:26:47;37.60;1.00
6443;DHT22;3254;47.372;8.512;2023-05-21T16:29:13;37.10;1.00
6443;DHT22;3254;47.372;8.512;2023-05-21T16:31:39;35.90;1.00